createdAt,value
2022-07-27T00:02:08.719Z,1.40
2022-07-27T00:04:36.311Z,1.27
2022-07-27T00:07:04.030Z,1.37
2022-07-27T00:09:31.650Z,1.10
2022-07-27T00:12:00.640Z,1.30
2022-07-27T00:14:28.358Z,1.20
2022-07-27T00:16:56.055Z,1.27
2022-07-27T00:19:24.691Z,1.40
2022-07-27T00:21:52.291Z,1.10
2022-07-27T00:24:20.380Z,1.03
2022-07-27T00:26:47.988Z,1.00
2022-07-27T00:29:17.281Z,1.17
2022-07-27T00:31:45.020Z,0.83
2022-07-27T00:34:12.658Z,1.10
2022-07-27T00:36:40.366Z,1.17
2022-07-27T00:39:08.177Z,1.47
2022-07-27T00:41:36.222Z,1.23
2022-07-27T00:44:06.662Z,1.33
2022-07-27T00:46:35.950Z,1.47
2022-07-27T00:49:03.924Z,1.30
2022-07-27T00:51:33.028Z,1.00
2022-07-27T00:54:00.687Z,1.10
2022-07-27T00:56:28.348Z,1.17
2022-07-27T00:58:58.075Z,1.10
2022-07-27T01:01:25.738Z,1.13
2022-07-27T01:03:54.770Z,1.23
2022-07-27T01:06:27.165Z,1.20
2022-07-27T01:09:15.918Z,1.30
2022-07-27T01:11:43.820Z,1.20
2022-07-27T01:14:14.029Z,1.20
2022-07-27T01:16:42.485Z,1.00
2022-07-27T01:19:12.504Z,1.47
2022-07-27T01:21:41.822Z,1.40
2022-07-27T01:24:09.589Z,1.13
2022-07-27T01:26:39.093Z,1.13
2022-07-27T01:29:06.978Z,1.47
2022-07-27T01:31:34.901Z,1.10
2022-07-27T01:34:02.747Z,1.20
2022-07-27T01:36:30.791Z,1.30
2022-07-27T01:38:59.782Z,1.20
2022-07-27T01:41:27.397Z,1.20
2022-07-27T01:43:55.211Z,1.03
2022-07-27T01:46:23.120Z,1.77
2022-07-27T01:48:50.848Z,1.40
2022-07-27T01:51:18.430Z,1.30
2022-07-27T01:53:46.118Z,1.40
2022-07-27T01:56:15.504Z,1.37
2022-07-27T01:58:44.133Z,1.27
2022-07-27T02:01:11.816Z,1.40
2022-07-27T02:03:39.965Z,1.37
2022-07-27T02:06:07.753Z,1.40
2022-07-27T02:08:37.081Z,1.30
2022-07-27T02:11:30.460Z,1.60
2022-07-27T02:13:59.414Z,1.50
2022-07-27T02:16:27.066Z,1.37
2022-07-27T02:18:56.139Z,1.40
2022-07-27T02:21:24.006Z,1.30
2022-07-27T02:23:51.626Z,1.30
2022-07-27T02:26:19.294Z,1.23
2022-07-27T02:28:46.961Z,1.40
2022-07-27T02:31:15.982Z,1.40
2022-07-27T02:33:43.602Z,1.30
2022-07-27T02:36:11.275Z,1.40
2022-07-27T02:38:39.079Z,1.47
2022-07-27T02:41:06.689Z,1.60
2022-07-27T02:43:34.675Z,1.30
2022-07-27T02:46:02.390Z,1.50
2022-07-27T02:48:32.770Z,1.37
2022-07-27T02:51:01.755Z,1.53
2022-07-27T02:53:29.649Z,1.40
2022-07-27T02:55:57.515Z,1.50
2022-07-27T02:58:25.606Z,1.33
2022-07-27T03:00:58.168Z,1.50
2022-07-27T03:03:36.512Z,1.50
2022-07-27T03:06:06.670Z,1.30
2022-07-27T03:08:34.463Z,1.90
2022-07-27T03:11:02.126Z,1.30
2022-07-27T03:13:29.957Z,1.47
2022-07-27T03:15:57.930Z,1.40
2022-07-27T03:18:25.939Z,1.67
2022-07-27T03:20:53.793Z,1.50
2022-07-27T03:23:24.233Z,1.47
2022-07-27T03:25:51.950Z,1.83
2022-07-27T03:28:19.607Z,1.43
2022-07-27T03:30:47.495Z,1.73
2022-07-27T03:33:15.310Z,1.40
2022-07-27T03:35:42.911Z,1.50
2022-07-27T03:38:11.466Z,1.33
2022-07-27T03:40:40.857Z,1.40
2022-07-27T03:43:08.688Z,1.60
2022-07-27T03:45:36.417Z,2.00
2022-07-27T03:48:04.375Z,1.30
2022-07-27T03:50:31.989Z,1.60
2022-07-27T03:52:59.617Z,1.30
2022-07-27T03:55:27.599Z,1.70
2022-07-27T03:57:56.675Z,1.27
2022-07-27T04:00:24.473Z,1.50
2022-07-27T04:02:52.771Z,1.43
2022-07-27T04:05:21.673Z,1.47
2022-07-27T04:07:49.946Z,1.20
2022-07-27T04:10:22.935Z,1.50
2022-07-27T04:12:50.602Z,1.50
2022-07-27T04:15:21.356Z,1.67
2022-07-27T04:17:54.918Z,1.70
2022-07-27T04:20:24.323Z,1.97
2022-07-27T04:22:52.029Z,1.70
2022-07-27T04:25:19.608Z,1.50
2022-07-27T04:27:48.115Z,1.60
2022-07-27T04:30:15.789Z,2.03
2022-07-27T04:32:44.770Z,1.80
2022-07-27T04:35:13.025Z,1.70
2022-07-27T04:37:40.716Z,1.50
2022-07-27T04:40:25.682Z,1.47
2022-07-27T04:42:53.242Z,1.63
2022-07-27T04:45:21.047Z,1.60
2022-07-27T04:47:50.037Z,1.73
2022-07-27T04:50:17.655Z,2.47
2022-07-27T04:52:45.703Z,1.60
2022-07-27T04:55:13.521Z,1.57
2022-07-27T04:57:41.890Z,1.70
2022-07-27T05:00:10.909Z,1.67
2022-07-27T05:02:40.347Z,2.10
2022-07-27T05:05:10.153Z,1.90
2022-07-27T05:07:38.018Z,2.13
2022-07-27T05:10:06.402Z,1.90
2022-07-27T05:12:33.995Z,2.57
2022-07-27T05:15:01.702Z,2.27
2022-07-27T05:17:29.291Z,1.87
2022-07-27T05:19:57.150Z,2.40
2022-07-27T05:22:26.467Z,2.00
2022-07-27T05:24:54.195Z,2.20
2022-07-27T05:27:21.922Z,2.27
2022-07-27T05:29:49.582Z,1.90
2022-07-27T05:32:17.350Z,1.83
2022-07-27T05:34:46.052Z,1.60
2022-07-27T05:37:14.014Z,2.17
2022-07-27T05:39:43.417Z,1.67
2022-07-27T05:42:11.263Z,1.60
2022-07-27T05:44:39.599Z,1.70
2022-07-27T05:47:07.260Z,1.57
2022-07-27T05:49:39.253Z,1.23
2022-07-27T05:52:07.415Z,1.40
2022-07-27T05:54:35.162Z,1.40
2022-07-27T05:57:04.216Z,1.30
2022-07-27T05:59:32.704Z,1.50
2022-07-27T06:02:00.951Z,1.20
2022-07-27T06:04:28.538Z,1.50
2022-07-27T06:07:13.996Z,1.40
2022-07-27T06:09:41.679Z,1.60
2022-07-27T06:12:10.990Z,1.03
2022-07-27T06:14:38.691Z,1.47
2022-07-27T06:17:07.543Z,1.10
2022-07-27T06:19:39.654Z,1.00
2022-07-27T06:22:07.521Z,1.00
2022-07-27T06:24:35.178Z,1.10
2022-07-27T06:27:02.833Z,1.10
2022-07-27T06:29:31.734Z,1.17
2022-07-27T06:31:59.709Z,1.30
2022-07-27T06:34:27.396Z,1.03
2022-07-27T06:36:55.338Z,1.23
2022-07-27T06:39:23.078Z,0.97
2022-07-27T06:41:54.876Z,1.20
2022-07-27T06:44:25.693Z,0.87
2022-07-27T06:46:54.915Z,0.90
2022-07-27T06:49:23.023Z,1.00
2022-07-27T06:51:50.679Z,0.93
2022-07-27T06:54:18.362Z,0.90
2022-07-27T06:56:46.590Z,0.70
2022-07-27T06:59:14.537Z,1.33
2022-07-27T07:01:48.491Z,1.10
2022-07-27T07:04:18.382Z,1.03
2022-07-27T07:06:53.278Z,1.00
2022-07-27T07:09:22.060Z,1.00
2022-07-27T07:11:49.678Z,1.10
2022-07-27T07:14:17.334Z,1.10
2022-07-27T07:16:45.027Z,0.70
2022-07-27T07:19:13.498Z,0.83
2022-07-27T07:21:42.764Z,1.30
2022-07-27T07:24:10.476Z,1.20
2022-07-27T07:26:40.319Z,0.90
2022-07-27T07:29:09.128Z,0.90
2022-07-27T07:31:37.875Z,0.80
2022-07-27T07:34:05.676Z,1.10
2022-07-27T07:36:33.257Z,0.93
2022-07-27T07:39:02.253Z,0.93
2022-07-27T07:41:29.836Z,1.33
2022-07-27T07:43:57.606Z,0.97
2022-07-27T07:46:25.287Z,0.77
2022-07-27T07:48:52.973Z,1.30
2022-07-27T07:51:20.684Z,0.80
2022-07-27T07:53:48.379Z,1.07
2022-07-27T07:56:17.916Z,1.10
2022-07-27T07:58:45.576Z,0.93
2022-07-27T08:01:13.379Z,0.93
2022-07-27T08:03:41.229Z,1.17
2022-07-27T08:06:08.885Z,1.17
2022-07-27T08:08:36.535Z,0.80
2022-07-27T08:11:04.216Z,0.80
2022-07-27T08:13:33.190Z,0.70
2022-07-27T08:16:00.954Z,1.13
2022-07-27T08:18:28.653Z,0.90
2022-07-27T08:20:56.266Z,0.90
2022-07-27T08:23:24.064Z,0.80
2022-07-27T08:25:51.735Z,0.80
2022-07-27T08:28:19.489Z,0.90
2022-07-27T08:30:49.825Z,1.07
2022-07-27T08:33:17.656Z,0.90
2022-07-27T08:35:46.467Z,0.70
2022-07-27T08:38:14.215Z,0.80
2022-07-27T08:40:44.710Z,1.00
2022-07-27T08:43:21.944Z,0.90
2022-07-27T08:45:56.351Z,0.97
2022-07-27T08:48:25.491Z,1.00
2022-07-27T08:50:53.163Z,1.00
2022-07-27T08:53:21.005Z,0.77
2022-07-27T08:55:49.136Z,0.83
2022-07-27T08:58:17.556Z,0.90
2022-07-27T09:00:46.777Z,0.80
2022-07-27T09:03:19.431Z,0.83
2022-07-27T09:05:48.938Z,1.37
2022-07-27T09:08:21.356Z,1.30
2022-07-27T09:10:49.405Z,0.97
2022-07-27T09:13:22.688Z,1.10
2022-07-27T09:18:40.971Z,0.97
2022-07-27T09:21:10.499Z,1.03
2022-07-27T09:23:38.263Z,1.00
2022-07-27T09:26:30.597Z,0.93
2022-07-27T09:29:01.050Z,1.40
2022-07-27T09:31:29.169Z,1.13
2022-07-27T09:34:00.162Z,1.30
2022-07-27T09:36:29.277Z,1.40
2022-07-27T09:39:02.473Z,1.33
2022-07-27T09:41:40.803Z,1.40
2022-07-27T09:46:56.239Z,1.30
2022-07-27T09:49:30.103Z,1.17
2022-07-27T09:52:00.964Z,0.97
2022-07-27T09:54:29.419Z,1.20
2022-07-27T09:57:01.466Z,0.80
2022-07-27T09:59:29.854Z,1.10
2022-07-27T10:01:58.008Z,1.00
2022-07-27T10:04:26.370Z,0.93
2022-07-27T10:07:04.721Z,0.90
2022-07-27T10:09:35.768Z,1.20
2022-07-27T10:12:05.003Z,1.03
2022-07-27T10:14:33.415Z,1.20
2022-07-27T10:17:01.434Z,1.30
2022-07-27T10:19:33.318Z,1.47
2022-07-27T10:22:02.931Z,1.30
2022-07-27T10:24:34.691Z,1.50
2022-07-27T10:27:19.539Z,1.10
2022-07-27T10:29:48.038Z,1.50
2022-07-27T10:32:24.356Z,1.27
2022-07-27T10:34:51.998Z,1.60
2022-07-27T10:37:26.061Z,1.47
2022-07-27T10:40:15.979Z,1.40
2022-07-27T10:42:44.002Z,1.60
2022-07-27T10:45:13.073Z,1.57
2022-07-27T10:47:43.197Z,1.20
2022-07-27T10:50:31.909Z,1.30
2022-07-27T10:53:07.188Z,1.40
2022-07-27T10:55:51.527Z,1.00
2022-07-27T10:58:43.754Z,1.20
2022-07-27T11:01:15.488Z,1.67
2022-07-27T11:03:49.327Z,1.20
2022-07-27T11:06:35.026Z,1.10
2022-07-27T11:10:00.190Z,1.20
2022-07-27T11:11:59.162Z,1.30
2022-07-27T11:14:30.627Z,1.23
2022-07-27T11:17:17.242Z,1.20
2022-07-27T11:19:52.815Z,1.40
2022-07-27T11:22:53.647Z,1.20
2022-07-27T11:25:19.260Z,1.20
2022-07-27T11:27:48.359Z,1.20
2022-07-27T11:30:23.906Z,1.20
2022-07-27T11:32:51.624Z,1.37
2022-07-27T11:35:20.194Z,1.30
2022-07-27T11:37:59.301Z,1.50
2022-07-27T11:40:56.324Z,1.33
2022-07-27T11:43:37.553Z,1.60
2022-07-27T11:46:13.516Z,1.40
2022-07-27T11:49:05.563Z,1.23
2022-07-27T11:51:34.721Z,0.90
2022-07-27T11:54:05.175Z,1.20
2022-07-27T11:56:35.492Z,1.00
2022-07-27T11:59:06.519Z,0.97
2022-07-27T12:01:35.622Z,1.27
2022-07-27T12:04:08.132Z,1.17
2022-07-27T12:06:36.663Z,1.40
2022-07-27T12:09:06.494Z,1.13
2022-07-27T12:11:55.201Z,1.20
2022-07-27T12:14:34.338Z,1.00
2022-07-27T12:17:29.242Z,1.00
2022-07-27T12:19:59.761Z,0.87
2022-07-27T12:22:34.329Z,1.00
2022-07-27T12:25:15.944Z,1.00
2022-07-27T12:27:56.337Z,1.00
2022-07-27T12:30:31.119Z,0.77
2022-07-27T12:32:58.854Z,0.97
2022-07-27T12:35:32.910Z,0.90
2022-07-27T12:38:05.554Z,0.90
2022-07-27T12:40:34.711Z,0.93
2022-07-27T12:43:06.479Z,1.20
2022-07-27T12:45:35.846Z,1.10
2022-07-27T12:48:08.423Z,1.00
2022-07-27T12:50:36.627Z,1.00
2022-07-27T12:53:04.554Z,1.00
2022-07-27T12:55:32.189Z,0.97
2022-07-27T12:58:00.235Z,0.90
2022-07-27T13:00:33.629Z,1.10
2022-07-27T13:03:03.048Z,0.90
2022-07-27T13:05:31.508Z,0.90
2022-07-27T13:07:59.233Z,1.10
2022-07-27T13:10:27.868Z,1.17
2022-07-27T13:12:55.640Z,1.20
2022-07-27T13:15:23.260Z,1.20
2022-07-27T13:17:52.593Z,1.40
2022-07-27T13:20:20.384Z,1.30
2022-07-27T13:22:48.252Z,2.00
2022-07-27T13:25:17.497Z,2.10
2022-07-27T13:27:46.308Z,1.60
2022-07-27T13:30:15.777Z,1.70
2022-07-27T13:32:44.080Z,1.47
2022-07-27T13:35:13.932Z,1.50
2022-07-27T13:37:42.237Z,1.03
2022-07-27T13:40:10.952Z,1.10
2022-07-27T13:42:38.729Z,1.23
2022-07-27T13:45:10.901Z,0.90
2022-07-27T13:47:39.882Z,0.80
2022-07-27T13:50:15.089Z,1.00
2022-07-27T13:52:46.918Z,0.97
2022-07-27T13:55:15.645Z,1.20
2022-07-27T13:57:43.649Z,1.20
2022-07-27T14:00:12.606Z,1.20
2022-07-27T14:02:41.856Z,1.53
2022-07-27T14:05:12.895Z,1.37
2022-07-27T14:07:41.603Z,1.30
2022-07-27T14:10:24.887Z,1.20
2022-07-27T14:12:58.378Z,1.40
2022-07-27T14:15:26.665Z,1.30
2022-07-27T14:17:54.339Z,1.20
2022-07-27T14:20:22.075Z,1.10
2022-07-27T14:22:50.048Z,1.00
2022-07-27T14:25:19.242Z,1.10
2022-07-27T14:27:47.002Z,0.93
2022-07-27T14:30:20.287Z,1.13
2022-07-27T14:32:48.569Z,0.70
2022-07-27T14:35:16.296Z,0.97
2022-07-27T14:37:43.899Z,0.90
2022-07-27T14:40:13.211Z,1.07
2022-07-27T14:42:42.509Z,0.80
2022-07-27T14:45:11.596Z,0.80
2022-07-27T14:47:39.221Z,0.80
2022-07-27T14:50:09.604Z,0.80
2022-07-27T14:52:37.463Z,1.00
2022-07-27T14:55:05.789Z,0.73
2022-07-27T14:57:33.519Z,0.90
2022-07-27T15:00:09.647Z,1.50
2022-07-27T15:02:37.982Z,1.00
2022-07-27T15:05:06.785Z,1.10
2022-07-27T15:07:35.196Z,0.90
2022-07-27T15:10:02.956Z,1.00
2022-07-27T15:12:33.727Z,0.90
2022-07-27T15:15:06.694Z,1.13
2022-07-27T15:17:34.475Z,1.03
2022-07-27T15:20:07.719Z,0.80
2022-07-27T15:22:35.772Z,0.90
2022-07-27T15:25:03.677Z,1.00
2022-07-27T15:27:31.456Z,1.07
2022-07-27T15:29:59.106Z,1.10
2022-07-27T15:32:28.212Z,1.10
2022-07-27T15:34:57.601Z,1.17
2022-07-27T15:37:25.263Z,1.33
2022-07-27T15:39:52.918Z,0.80
2022-07-27T15:42:21.605Z,1.30
2022-07-27T15:44:49.247Z,0.80
2022-07-27T15:47:16.850Z,1.10
2022-07-27T15:49:46.131Z,1.10
2022-07-27T15:52:13.800Z,1.10
2022-07-27T15:54:45.432Z,0.97
2022-07-27T15:57:13.455Z,1.10
2022-07-27T15:59:41.079Z,0.97
2022-07-27T16:02:09.980Z,0.80
2022-07-27T16:04:38.313Z,0.80
2022-07-27T16:07:07.327Z,1.10
2022-07-27T16:09:36.445Z,0.97
2022-07-27T16:12:04.115Z,0.93
2022-07-27T16:14:31.896Z,1.13
2022-07-27T16:17:02.251Z,1.00
2022-07-27T16:19:29.859Z,0.80
2022-07-27T16:21:57.454Z,1.27
2022-07-27T16:24:27.203Z,0.90
2022-07-27T16:26:55.253Z,1.20
2022-07-27T16:29:23.338Z,1.00
2022-07-27T16:31:51.104Z,1.00
2022-07-27T16:34:18.900Z,0.90
2022-07-27T16:36:47.127Z,1.03
2022-07-27T16:39:14.958Z,0.80
2022-07-27T16:41:44.778Z,1.00
2022-07-27T16:44:12.396Z,0.97
2022-07-27T16:46:40.543Z,1.00
2022-07-27T16:49:08.266Z,0.90
2022-07-27T16:51:36.023Z,0.90
2022-07-27T16:54:03.857Z,1.03
2022-07-27T16:56:31.569Z,1.20
2022-07-27T16:59:00.665Z,1.00
2022-07-27T17:01:28.946Z,1.07
2022-07-27T17:03:56.974Z,1.17
2022-07-27T17:06:26.845Z,1.20
2022-07-27T17:08:54.787Z,0.80
2022-07-27T17:11:23.464Z,0.90
2022-07-27T17:13:58.820Z,1.10
2022-07-27T17:16:29.054Z,0.97
2022-07-27T17:18:56.903Z,1.10
2022-07-27T17:21:24.571Z,1.20
2022-07-27T17:23:52.249Z,1.30
2022-07-27T17:26:19.923Z,1.23
2022-07-27T17:28:50.595Z,1.13
2022-07-27T17:31:18.772Z,1.13
2022-07-27T17:33:47.898Z,0.90
2022-07-27T17:36:15.980Z,1.10
2022-07-27T17:38:44.272Z,1.00
2022-07-27T17:41:12.191Z,1.00
2022-07-27T17:43:39.951Z,1.13
2022-07-27T17:46:08.050Z,1.10
2022-07-27T17:48:36.448Z,0.93
2022-07-27T17:51:06.135Z,1.57
2022-07-27T17:53:34.608Z,1.20
2022-07-27T17:56:04.499Z,1.30
2022-07-27T17:58:32.395Z,1.27
2022-07-27T18:01:00.070Z,1.00
2022-07-27T18:03:27.986Z,1.20
2022-07-27T18:05:55.949Z,1.57
2022-07-27T18:08:25.218Z,1.20
2022-07-27T18:10:52.875Z,1.00
2022-07-27T18:13:20.787Z,1.30
2022-07-27T18:15:48.947Z,1.27
2022-07-27T18:18:17.308Z,1.00
2022-07-27T18:20:46.297Z,1.27
2022-07-27T18:23:14.205Z,1.10
2022-07-27T18:25:44.521Z,1.00
2022-07-27T18:28:13.886Z,1.03
2022-07-27T18:30:41.572Z,1.00
2022-07-27T18:33:09.228Z,1.10
2022-07-27T18:35:36.910Z,1.30
2022-07-27T18:38:08.331Z,1.13
2022-07-27T18:40:36.538Z,1.00
2022-07-27T18:43:06.484Z,1.17
2022-07-27T18:45:34.953Z,1.13
2022-07-27T18:48:02.783Z,1.30
2022-07-27T18:50:33.357Z,1.30
2022-07-27T18:53:03.573Z,1.50
2022-07-27T18:55:32.458Z,1.10
2022-07-27T18:58:00.084Z,1.10
2022-07-27T19:00:29.784Z,1.20
2022-07-27T19:02:58.546Z,1.23
2022-07-27T19:05:31.559Z,1.03
2022-07-27T19:08:11.272Z,1.47
2022-07-27T19:10:40.941Z,1.40
2022-07-27T19:13:08.995Z,1.40
2022-07-27T19:15:38.111Z,1.10
2022-07-27T19:18:06.130Z,1.10
2022-07-27T19:20:33.899Z,1.23
2022-07-27T19:23:01.532Z,1.10
2022-07-27T19:25:30.319Z,1.30
2022-07-27T19:27:59.788Z,1.30
2022-07-27T19:30:27.624Z,1.13
2022-07-27T19:32:57.311Z,1.23
2022-07-27T19:35:24.966Z,1.20
2022-07-27T19:37:52.568Z,1.30
2022-07-27T19:40:43.645Z,1.10
2022-07-27T19:43:08.463Z,1.53
2022-07-27T19:45:36.394Z,1.27
2022-07-27T19:48:06.623Z,1.13
2022-07-27T19:50:34.256Z,1.17
2022-07-27T19:53:02.020Z,1.20
2022-07-27T19:55:29.649Z,1.23
2022-07-27T19:57:57.300Z,1.20
2022-07-27T20:00:25.249Z,1.20
2022-07-27T20:02:52.955Z,1.33
2022-07-27T20:05:22.654Z,0.87
2022-07-27T20:07:50.309Z,1.30
2022-07-27T20:10:18.182Z,1.20
2022-07-27T20:12:45.972Z,1.40
2022-07-27T20:15:13.719Z,1.50
2022-07-27T20:17:41.651Z,1.47
2022-07-27T20:20:10.600Z,1.20
2022-07-27T20:22:40.874Z,1.33
2022-07-27T20:25:10.582Z,1.50
2022-07-27T20:27:38.743Z,1.13
2022-07-27T20:30:07.244Z,1.40
2022-07-27T20:32:34.918Z,1.50
2022-07-27T20:35:02.584Z,1.63
2022-07-27T20:37:30.325Z,1.50
2022-07-27T20:39:59.315Z,1.50
2022-07-27T20:42:27.044Z,1.50
2022-07-27T20:44:54.679Z,1.50
2022-07-27T20:47:22.322Z,1.20
2022-07-27T20:49:49.980Z,1.00
2022-07-27T20:52:18.374Z,1.20
2022-07-27T20:54:46.029Z,1.37
2022-07-27T20:57:15.021Z,1.30
2022-07-27T20:59:42.686Z,1.10
2022-07-27T21:02:10.382Z,1.30
2022-07-27T21:04:38.006Z,1.60
2022-07-27T21:07:05.683Z,1.23
2022-07-27T21:09:33.290Z,1.13
2022-07-27T21:12:01.211Z,1.20
2022-07-27T21:14:30.292Z,1.40
2022-07-27T21:16:58.019Z,1.40
2022-07-27T21:19:25.837Z,1.50
2022-07-27T21:21:53.436Z,1.30
2022-07-27T21:24:22.761Z,1.20
2022-07-27T21:26:51.876Z,1.20
2022-07-27T21:29:20.396Z,1.50
2022-07-27T21:31:50.794Z,1.20
2022-07-27T21:34:19.790Z,1.40
2022-07-27T21:36:47.644Z,1.10
2022-07-27T21:39:15.971Z,1.23
2022-07-27T21:41:43.719Z,1.40
2022-07-27T21:44:11.647Z,1.10
2022-07-27T21:46:39.589Z,1.30
2022-07-27T21:49:10.144Z,1.50
2022-07-27T21:51:37.919Z,1.30
2022-07-27T21:54:05.972Z,1.10
2022-07-27T21:56:41.086Z,1.27
2022-07-27T21:59:09.662Z,1.20
2022-07-27T22:01:37.367Z,1.30
2022-07-27T22:04:05.471Z,1.30
2022-07-27T22:06:34.566Z,1.30
2022-07-27T22:09:02.225Z,1.00
2022-07-27T22:11:29.845Z,1.30
2022-07-27T22:13:57.483Z,1.37
2022-07-27T22:16:25.232Z,1.20
2022-07-27T22:18:52.853Z,1.40
2022-07-27T22:21:21.573Z,1.67
2022-07-27T22:23:50.752Z,1.60
2022-07-27T22:26:18.406Z,1.47
2022-07-27T22:28:46.063Z,1.30
2022-07-27T22:31:21.533Z,1.63
2022-07-27T22:33:51.010Z,1.50
2022-07-27T22:36:18.684Z,1.60
2022-07-27T22:38:46.372Z,1.30
2022-07-27T22:41:15.407Z,1.13
2022-07-27T22:43:43.010Z,1.40
2022-07-27T22:46:10.865Z,1.50
2022-07-27T22:48:38.644Z,1.27
2022-07-27T22:51:07.007Z,1.47
2022-07-27T22:53:34.902Z,1.40
2022-07-27T22:56:02.519Z,1.60
2022-07-27T22:58:31.510Z,1.30
2022-07-27T23:01:00.010Z,1.40
2022-07-27T23:03:27.765Z,1.20
2022-07-27T23:05:55.439Z,1.50
2022-07-27T23:08:23.063Z,1.30
2022-07-27T23:10:50.654Z,1.37
2022-07-27T23:13:19.646Z,1.37
2022-07-27T23:15:48.646Z,1.30
2022-07-27T23:18:17.172Z,1.33
2022-07-27T23:20:44.950Z,1.30
2022-07-27T23:23:16.268Z,2.43
2022-07-27T23:25:44.647Z,1.60
2022-07-27T23:28:12.321Z,1.50
2022-07-27T23:30:39.999Z,1.23
2022-07-27T23:33:09.010Z,1.43
2022-07-27T23:35:36.603Z,1.50
2022-07-27T23:38:04.289Z,1.30
2022-07-27T23:40:32.056Z,1.40
2022-07-27T23:42:59.684Z,1.30
2022-07-27T23:45:27.428Z,1.60
2022-07-27T23:47:55.195Z,1.90
2022-07-27T23:50:24.362Z,1.50
2022-07-27T23:52:52.037Z,1.60
2022-07-27T23:55:19.647Z,1.67
2022-07-27T23:57:47.287Z,1.40
